Time;durP1;ratioP1;P1;durP2;ratioP2;P2;SDS_P1;SDS_P2;PMS_P1;PMS_P2;Temp;Humidity;BMP_temperature;BMP_pressure;BME280_temperature;BME280_humidity;BME280_pressure;Samples;Min_cycle;Max_cycle;Signal;HPM_P1;HPM_P2
2023/09/02 00:00:38;;;;;;;;;;;;;;;18.42;79.11;99960.50;1083339;54;20007;-80
2023/09/02 00:01:47;;;;;;;;;;;;;;;18.43;78.99;99956.78;1083554;54;19957;-80
2023/09/02 00:02:51;;;;;;;;;;;;;;;18.44;78.50;99960.31;1083774;54;19970;-80
2023/09/02 00:03:59;;;;;;;;;;;;;;;18.45;78.44;99957.41;1083622;46;19946;-80
2023/09/02 00:05:06;;;;;;;;;;;;;;;18.45;78.32;99962.81;1084160;47;19947;-80
2023/09/02 00:06:13;;;;;;;;;;;;;;;18.42;78.58;99949.69;1083556;51;19951;-79
2023/09/02 00:07:15;;;;;;;;;;;;;;;18.39;78.88;99959.03;1084005;46;19998;-80
2023/09/02 00:08:25;;;;;;;;;;;;;;;18.37;78.85;99957.56;1084311;54;19947;-80
2023/09/02 00:09:31;;;;;;;;;;;;;;;18.35;79.04;99954.22;1084365;47;20007;-80
2023/09/02 00:10:45;;;;;;;;;;;;;;;18.36;78.80;99959.47;1084318;54;19978;-80
2023/09/02 00:11:48;;;;;;;;;;;;;;;18.35;78.79;99959.63;1083864;47;19954;-80
2023/09/02 00:13:03;;;;;;;;;;;;;;;18.31;79.00;99956.50;1083780;54;19958;-80
2023/09/02 00:14:14;;;;;;;;;;;;;;;18.28;79.51;99964.19;1084354;54;19950;-80
2023/09/02 00:15:21;;;;;;;;;;;;;;;18.26;79.27;99955.41;1083983;54;19990;-80
2023/09/02 00:16:28;;;;;;;;;;;;;;;18.24;79.50;99961.84;1084127;47;19981;-80
2023/09/02 00:17:33;;;;;;;;;;;;;;;18.29;79.60;99955.03;1085968;54;20506;-82
2023/09/02 00:18:39;;;;;;;;;;;;;;;18.30;79.38;99962.94;1085458;47;19950;-81
2023/09/02 00:19:43;;;;;;;;;;;;;;;18.32;79.58;99966.28;1085456;47;20895;-81
2023/09/02 00:20:46;;;;;;;;;;;;;;;18.30;79.22;99959.41;1086140;54;19950;-81
2023/09/02 00:21:53;;;;;;;;;;;;;;;18.28;79.37;99964.19;1086097;54;19950;-81
2023/09/02 00:22:56;;;;;;;;;;;;;;;18.23;79.46;99965.59;1086157;54;19962;-81
2023/09/02 00:24:03;;;;;;;;;;;;;;;18.22;79.63;99968.50;1085572;47;19981;-81
2023/09/02 00:25:06;;;;;;;;;;;;;;;18.22;79.45;99966.66;1085867;47;19946;-81
2023/09/02 00:26:12;;;;;;;;;;;;;;;18.20;79.68;99973.25;1087037;54;19957;-81
2023/09/02 00:27:15;;;;;;;;;;;;;;;18.18;79.43;99976.19;1086979;47;19950;-81
2023/09/02 00:28:24;;;;;;;;;;;;;;;18.20;79.39;99968.72;1085576;47;19959;-81
2023/09/02 00:29:34;;;;;;;;;;;;;;;18.16;79.48;99967.41;1085536;54;19950;-82
2023/09/02 00:30:37;;;;;;;;;;;;;;;18.12;79.75;99965.31;1085389;54;20008;-83
2023/09/02 00:31:47;;;;;;;;;;;;;;;18.14;79.71;99974.88;1085092;54;19950;-80
2023/09/02 00:32:50;;;;;;;;;;;;;;;18.12;79.66;99976.97;1084091;47;19950;-80
2023/09/02 00:33:56;;;;;;;;;;;;;;;18.14;79.74;99979.47;1084008;54;19998;-80
2023/09/02 00:34:59;;;;;;;;;;;;;;;18.15;79.76;99983.84;1084096;47;19977;-80
2023/09/02 00:36:07;;;;;;;;;;;;;;;18.14;79.87;99985.69;1084050;47;19946;-80
2023/09/02 00:37:08;;;;;;;;;;;;;;;18.11;79.56;99983.41;1083513;47;19946;-81
2023/09/02 00:38:09;;;;;;;;;;;;;;;18.10;79.77;99989.84;1083972;47;20505;-80
2023/09/02 00:39:29;;;;;;;;;;;;;;;18.10;79.80;99987.16;1083447;47;19946;-80
2023/09/02 00:40:30;;;;;;;;;;;;;;;18.10;80.06;99987.16;1083590;47;19951;-80
2023/09/02 00:41:38;;;;;;;;;;;;;;;18.09;79.72;99986.28;1083821;47;19946;-80
2023/09/02 00:42:53;;;;;;;;;;;;;;;18.05;80.10;99993.13;1083498;54;19985;-81
2023/09/02 00:44:03;;;;;;;;;;;;;;;17.98;80.59;99986.00;1083836;54;19950;-80
2023/09/02 00:45:16;;;;;;;;;;;;;;;17.91;80.90;99985.91;1084139;54;19953;-80
2023/09/02 00:46:19;;;;;;;;;;;;;;;17.86;81.15;99993.78;1084135;50;19947;-81
2023/09/02 00:47:27;;;;;;;;;;;;;;;17.80;81.29;99989.97;1084513;46;20032;-80
2023/09/02 00:48:34;;;;;;;;;;;;;;;17.77;81.57;99979.53;1085697;39;20009;-80
2023/09/02 00:49:38;;;;;;;;;;;;;;;17.75;81.63;99976.22;1084791;54;19947;-80
2023/09/02 00:50:43;;;;;;;;;;;;;;;17.76;81.55;99977.84;1084537;54;19947;-80
2023/09/02 00:52:08;;;;;;;;;;;;;;;17.73;81.92;99986.38;1084367;47;20501;-80
2023/09/02 00:53:16;;;;;;;;;;;;;;;17.71;81.94;99986.53;1083984;54;19946;-80
2023/09/02 00:54:19;;;;;;;;;;;;;;;17.74;82.09;99985.34;1084843;39;20338;-80
2023/09/02 00:55:20;;;;;;;;;;;;;;;17.72;81.94;99984.69;1084033;54;21785;-80
2023/09/02 00:56:30;;;;;;;;;;;;;;;17.71;82.14;99985.72;1084062;47;19950;-80
2023/09/02 00:57:30;;;;;;;;;;;;;;;17.71;81.91;99988.44;1083560;47;19946;-80
2023/09/02 00:58:34;;;;;;;;;;;;;;;17.69;81.88;99987.78;1083855;47;19986;-80
2023/09/02 00:59:47;;;;;;;;;;;;;;;17.68;82.21;99980.69;1083869;47;19946;-81
2023/09/02 01:00:54;;;;;;;;;;;;;;;17.66;81.90;99988.19;1084097;47;20011;-79
2023/09/02 01:01:58;;;;;;;;;;;;;;;17.64;82.34;99992.94;1083356;47;20045;-80
2023/09/02 01:03:09;;;;;;;;;;;;;;;17.62;82.46;99993.97;1083647;47;19946;-80
2023/09/02 01:04:10;;;;;;;;;;;;;;;17.60;82.59;99996.00;1083540;47;19965;-80
2023/09/02 01:05:16;;;;;;;;;;;;;;;17.59;83.05;99996.22;1083527;46;19973;-80
2023/09/02 01:06:19;;;;;;;;;;;;;;;17.60;82.33;99993.31;1083921;47;19957;-80
2023/09/02 01:07:23;;;;;;;;;;;;;;;17.61;82.67;99995.00;1084174;47;20015;-80
2023/09/02 01:08:29;;;;;;;;;;;;;;;17.61;82.48;99992.28;1083940;47;19970;-80
2023/09/02 01:09:34;;;;;;;;;;;;;;;17.54;82.94;99996.78;1084154;47;19950;-80
2023/09/02 01:10:37;;;;;;;;;;;;;;;17.50;82.92;99995.50;1083404;47;20541;-80
2023/09/02 01:11:44;;;;;;;;;;;;;;;17.40;83.52;100003.91;1083532;47;19947;-80
2023/09/02 01:12:45;;;;;;;;;;;;;;;17.35;84.37;100000.13;1084209;54;20821;-80
2023/09/02 01:13:46;;;;;;;;;;;;;;;17.36;83.94;99999.09;1084329;47;19953;-80
2023/09/02 01:14:50;;;;;;;;;;;;;;;17.36;84.33;100001.78;1084254;47;20037;-80
2023/09/02 01:15:53;;;;;;;;;;;;;;;17.36;84.02;99999.09;1083987;47;19946;-80
2023/09/02 01:16:56;;;;;;;;;;;;;;;17.35;84.12;100003.63;1083473;54;19947;-80
2023/09/02 01:18:01;;;;;;;;;;;;;;;17.35;84.11;100003.63;1083701;47;19947;-80
2023/09/02 01:19:08;;;;;;;;;;;;;;;17.34;84.21;100001.97;1083307;54;20454;-80
2023/09/02 01:20:12;;;;;;;;;;;;;;;17.38;83.86;99999.75;1083458;47;19970;-80
2023/09/02 01:21:32;;;;;;;;;;;;;;;17.41;83.68;99991.22;1083760;47;20018;-80
2023/09/02 01:22:51;;;;;;;;;;;;;;;17.44;83.14;99994.38;1083207;47;19970;-80
2023/09/02 01:24:07;;;;;;;;;;;;;;;17.44;83.18;99997.09;1083412;47;19977;-80
2023/09/02 01:25:18;;;;;;;;;;;;;;;17.44;83.25;100001.66;1083694;47;19954;-80
2023/09/02 01:26:27;;;;;;;;;;;;;;;17.43;83.53;99998.13;1084477;47;19950;-80
2023/09/02 01:27:38;;;;;;;;;;;;;;;17.44;83.28;99996.25;1084128;47;19946;-80
2023/09/02 01:28:45;;;;;;;;;;;;;;;17.39;83.48;99995.97;1084172;47;19951;-80
2023/09/02 01:29:51;;;;;;;;;;;;;;;17.38;83.73;100000.56;1084301;47;19997;-80
2023/09/02 01:30:55;;;;;;;;;;;;;;;17.40;83.65;99998.50;1084626;47;19946;-80
2023/09/02 01:32:05;;;;;;;;;;;;;;;17.40;83.28;99994.97;1084735;54;19950;-80
2023/09/02 01:33:09;;;;;;;;;;;;;;;17.39;83.24;100014.91;1085075;54;20065;-80
2023/09/02 01:34:33;;;;;;;;;;;;;;;;;;;;;
2023/09/02 01:35:43;;;;;;;;;;;;;;;17.37;83.78;100003.47;1084139;54;19957;-80
2023/09/02 01:37:02;;;;;;;;;;;;;;;17.37;83.73;100014.28;1084250;54;19965;-81
2023/09/02 01:38:10;;;;;;;;;;;;;;;17.36;83.38;100005.31;1085062;47;20025;-80
2023/09/02 01:39:17;;;;;;;;;;;;;;;17.34;83.63;100010.06;1084946;54;19950;-80
2023/09/02 01:40:25;;;;;;;;;;;;;;;17.29;84.07;100009.81;1084325;47;19950;-80
2023/09/02 01:41:27;;;;;;;;;;;;;;;17.29;84.15;100012.50;1084124;47;20902;-81
2023/09/02 01:42:40;;;;;;;;;;;;;;;17.25;84.35;100003.09;1084405;54;19947;-80
2023/09/02 01:43:42;;;;;;;;;;;;;;;17.22;84.27;100007.03;1083975;47;20104;-80
2023/09/02 01:44:49;;;;;;;;;;;;;;;17.22;84.53;100007.03;1084382;47;20544;-81
2023/09/02 01:45:51;;;;;;;;;;;;;;;17.23;84.54;100019.50;1084311;47;19950;-80
2023/09/02 01:46:55;;;;;;;;;;;;;;;17.21;84.64;100013.44;1084239;47;19946;-80
2023/09/02 01:47:59;;;;;;;;;;;;;;;17.19;84.85;100012.81;1085100;54;19970;-80
2023/09/02 01:49:06;;;;;;;;;;;;;;;17.15;85.17;100015.03;1084600;47;19950;-80
2023/09/02 01:50:09;;;;;;;;;;;;;;;17.15;85.12;100008.81;1085238;39;20742;-81
2023/09/02 01:51:18;;;;;;;;;;;;;;;17.13;85.31;100011.72;1085042;47;19950;-81
2023/09/02 01:52:19;;;;;;;;;;;;;;;17.14;85.02;100010.66;1084697;54;19954;-80
2023/09/02 01:53:24;;;;;;;;;;;;;;;17.15;85.10;100009.63;1084912;54;19998;-80
2023/09/02 01:54:25;;;;;;;;;;;;;;;17.15;84.87;100011.50;1084594;47;19953;-81
2023/09/02 01:55:27;;;;;;;;;;;;;;;17.17;85.10;100012.16;1083852;54;19942;-80
2023/09/02 01:56:30;;;;;;;;;;;;;;;17.17;84.92;100009.47;1084422;54;19973;-80
2023/09/02 01:57:41;;;;;;;;;;;;;;;17.19;84.50;100014.66;1084294;54;19947;-80
2023/09/02 01:58:45;;;;;;;;;;;;;;;17.21;84.75;100018.84;1084783;47;20011;-80
2023/09/02 01:59:45;;;;;;;;;;;;;;;17.27;84.14;100017.25;1084941;54;19950;-79
2023/09/02 02:00:49;;;;;;;;;;;;;;;17.30;83.94;100015.00;1084717;47;19962;-80
2023/09/02 02:01:55;;;;;;;;;;;;;;;17.35;84.08;100014.44;1084699;47;19947;-80
2023/09/02 02:03:02;;;;;;;;;;;;;;;17.39;84.10;100015.75;1085130;54;19952;-80
2023/09/02 02:04:06;;;;;;;;;;;;;;;17.42;83.62;100014.53;1084487;54;19950;-80
2023/09/02 02:05:12;;;;;;;;;;;;;;;17.41;83.29;100023.66;1084618;54;19997;-80
2023/09/02 02:06:13;;;;;;;;;;;;;;;17.40;83.32;100011.16;1084986;47;19957;-80
2023/09/02 02:07:14;;;;;;;;;;;;;;;17.38;83.46;100018.66;1084961;47;19950;-81
2023/09/02 02:08:22;;;;;;;;;;;;;;;17.32;83.81;100020.25;1084972;47;19981;-80
2023/09/02 02:09:27;;;;;;;;;;;;;;;17.29;83.84;100016.03;1085071;47;19950;-80
2023/09/02 02:10:32;;;;;;;;;;;;;;;17.24;84.08;100014.97;1085030;54;19950;-80
2023/09/02 02:11:35;;;;;;;;;;;;;;;17.21;84.45;100016.16;1085528;54;19973;-80
2023/09/02 02:12:52;;;;;;;;;;;;;;;17.22;84.65;100017.00;1086873;54;19950;-80
2023/09/02 02:13:53;;;;;;;;;;;;;;;17.19;84.58;100012.81;1086916;47;19946;-81
2023/09/02 02:14:57;;;;;;;;;;;;;;;17.21;84.49;100012.63;1086437;47;19970;-80
2023/09/02 02:16:05;;;;;;;;;;;;;;;17.16;84.74;100015.91;1085748;54;20050;-80
2023/09/02 02:17:19;;;;;;;;;;;;;;;17.19;84.67;100023.63;1084903;47;19995;-81
2023/09/02 02:18:20;;;;;;;;;;;;;;;17.17;84.74;100025.69;1085092;54;20011;-80
2023/09/02 02:19:25;;;;;;;;;;;;;;;17.15;85.10;100022.31;1085374;47;19955;-79
2023/09/02 02:20:31;;;;;;;;;;;;;;;17.14;84.91;100026.88;1085657;47;19942;-80
2023/09/02 02:21:40;;;;;;;;;;;;;;;17.15;85.02;100022.31;1086299;39;20852;-81
2023/09/02 02:22:42;;;;;;;;;;;;;;;17.13;85.27;100019.81;1085659;54;19950;-80
2023/09/02 02:23:53;;;;;;;;;;;;;;;17.09;85.49;100018.50;1085701;47;20010;-80
2023/09/02 02:24:54;;;;;;;;;;;;;;;17.08;85.30;100027.63;1084518;54;19951;-81
2023/09/02 02:26:04;;;;;;;;;;;;;;;17.11;85.29;100029.97;1084474;47;19950;-80
2023/09/02 02:27:10;;;;;;;;;;;;;;;17.09;85.59;100031.19;1084778;54;19978;-80
2023/09/02 02:28:17;;;;;;;;;;;;;;;17.06;85.88;100034.25;1084888;47;19953;-80
2023/09/02 02:29:21;;;;;;;;;;;;;;;17.05;85.90;100029.88;1084323;47;19946;-80
2023/09/02 02:30:25;;;;;;;;;;;;;;;17.04;86.06;100036.28;1084616;47;20049;-80
2023/09/02 02:31:36;;;;;;;;;;;;;;;17.04;85.85;100039.00;1084919;39;20563;-81
2023/09/02 02:32:40;;;;;;;;;;;;;;;17.03;85.79;100037.31;1083816;47;19953;-80
2023/09/02 02:33:42;;;;;;;;;;;;;;;17.05;85.75;100040.66;1084868;47;19946;-80
2023/09/02 02:34:50;;;;;;;;;;;;;;;17.06;86.06;100031.56;1084934;47;20466;-81
2023/09/02 02:35:51;;;;;;;;;;;;;;;17.06;86.00;100031.56;1084890;54;19946;-81
2023/09/02 02:37:00;;;;;;;;;;;;;;;17.08;85.79;100029.50;1085732;54;19951;-80
2023/09/02 02:38:09;;;;;;;;;;;;;;;17.07;85.49;100038.63;1085499;47;19957;-80
2023/09/02 02:39:18;;;;;;;;;;;;;;;17.08;85.77;100037.59;1085770;54;19977;-81
2023/09/02 02:40:22;;;;;;;;;;;;;;;17.12;85.23;100038.88;1085344;46;19951;-80
2023/09/02 02:41:46;;;;;;;;;;;;;;;17.11;85.24;100031.81;1084669;47;19950;-80
2023/09/02 02:42:49;;;;;;;;;;;;;;;17.09;85.83;100039.28;1085053;47;19946;-80
2023/09/02 02:43:59;;;;;;;;;;;;;;;17.07;85.95;100030.53;1085044;47;19953;-81
2023/09/02 02:45:07;;;;;;;;;;;;;;;17.04;85.82;100039.00;1085613;54;19957;-81
2023/09/02 02:46:12;;;;;;;;;;;;;;;17.00;86.14;100033.97;1085330;47;19950;-81
2023/09/02 02:47:13;;;;;;;;;;;;;;;17.03;86.11;100040.00;1085527;47;19950;-80
2023/09/02 02:48:17;;;;;;;;;;;;;;;17.04;86.24;100039.00;1085125;47;19953;-80
2023/09/02 02:49:30;;;;;;;;;;;;;;;17.05;86.30;100032.56;1084682;54;19947;-80
2023/09/02 02:50:38;;;;;;;;;;;;;;;17.09;85.90;100032.00;1084643;47;19950;-80
2023/09/02 02:51:41;;;;;;;;;;;;;;;17.12;85.69;100036.19;1083860;47;19946;-80
2023/09/02 02:52:42;;;;;;;;;;;;;;;17.11;85.57;100029.97;1083673;47;19946;-80
2023/09/02 02:53:48;;;;;;;;;;;;;;;17.13;85.76;100032.47;1083968;54;19950;-80
2023/09/02 02:54:52;;;;;;;;;;;;;;;17.12;85.43;100036.19;1083999;47;19958;-80
2023/09/02 02:56:02;;;;;;;;;;;;;;;17.10;85.56;100028.28;1083901;47;19947;-80
2023/09/02 02:57:15;;;;;;;;;;;;;;;17.05;85.72;100022.59;1084304;54;20037;-80
2023/09/02 02:58:16;;;;;;;;;;;;;;;17.04;85.84;100029.03;1082888;47;19950;-80
2023/09/02 02:59:24;;;;;;;;;;;;;;;17.06;85.78;100028.84;1083546;39;20703;-80
2023/09/02 03:00:26;;;;;;;;;;;;;;;17.05;86.10;100027.16;1083628;47;20470;-80
2023/09/02 03:01:31;;;;;;;;;;;;;;;17.06;85.67;100023.44;1083778;47;19954;-80
2023/09/02 03:02:33;;;;;;;;;;;;;;;17.04;86.08;100020.94;1084694;39;20397;-79
2023/09/02 03:03:41;;;;;;;;;;;;;;;17.03;86.12;100024.66;1083120;47;19953;-79
2023/09/02 03:04:46;;;;;;;;;;;;;;;17.00;86.01;100027.72;1082926;47;19950;-79
2023/09/02 03:06:02;;;;;;;;;;;;;;;16.97;86.21;100023.56;1083134;54;20059;-79
2023/09/02 03:07:07;;;;;;;;;;;;;;;16.97;86.30;100028.94;1083673;54;19957;-80
2023/09/02 03:08:12;;;;;;;;;;;;;;;16.97;86.40;100031.66;1082844;47;19946;-80
2023/09/02 03:09:14;;;;;;;;;;;;;;;16.98;85.94;100036.03;1082735;47;19956;-80
2023/09/02 03:10:29;;;;;;;;;;;;;;;16.96;86.28;100035.38;1082589;47;19958;-80
2023/09/02 03:11:30;;;;;;;;;;;;;;;16.97;86.33;100037.06;1083658;54;19946;-80
2023/09/02 03:12:45;;;;;;;;;;;;;;;16.98;86.19;100044.13;1082965;47;19950;-80
2023/09/02 03:13:46;;;;;;;;;;;;;;;16.98;86.33;100032.47;1083654;47;20046;-80
2023/09/02 03:14:57;;;;;;;;;;;;;;;16.95;86.34;100040.97;1083515;51;20787;-80
2023/09/02 03:16:01;;;;;;;;;;;;;;;16.94;86.24;100042.81;1084229;54;19946;-79
2023/09/02 03:17:07;;;;;;;;;;;;;;;16.96;86.38;100043.47;1083855;54;19946;-79
2023/09/02 03:18:12;;;;;;;;;;;;;;;16.95;86.42;100047.19;1084397;47;20542;-80
2023/09/02 03:19:25;;;;;;;;;;;;;;;16.94;86.73;100042.81;1084580;47;20038;-79
2023/09/02 03:20:26;;;;;;;;;;;;;;;16.91;86.48;100040.44;1083330;47;19966;-80
2023/09/02 03:21:41;;;;;;;;;;;;;;;16.88;86.60;100043.53;1083542;54;19946;-79
2023/09/02 03:22:42;;;;;;;;;;;;;;;16.85;86.96;100046.59;1083602;47;19955;-79
2023/09/02 03:23:46;;;;;;;;;;;;;;;16.82;87.00;100041.56;1082687;47;19947;-80
2023/09/02 03:24:52;;;;;;;;;;;;;;;16.80;87.32;100038.25;1082794;47;19971;-79
2023/09/02 03:25:58;;;;;;;;;;;;;;;16.78;87.52;100040.28;1083207;47;19951;-79
2023/09/02 03:26:59;;;;;;;;;;;;;;;16.76;87.86;100047.72;1082778;47;19974;-79
2023/09/02 03:28:05;;;;;;;;;;;;;;;16.76;87.76;100048.56;1082648;47;19954;-80
2023/09/02 03:29:06;;;;;;;;;;;;;;;16.76;87.44;100045.03;1083026;39;20650;-79
2023/09/02 03:30:17;;;;;;;;;;;;;;;16.76;87.41;100043.16;1083387;47;19950;-79
2023/09/02 03:31:37;;;;;;;;;;;;;;;16.73;87.91;100048.94;1083275;54;19950;-79
2023/09/02 03:32:40;;;;;;;;;;;;;;;16.72;87.93;100047.25;1083181;47;19951;-78
2023/09/02 03:33:45;;;;;;;;;;;;;;;16.71;87.99;100056.38;1082675;47;19987;-79
2023/09/02 03:34:50;;;;;;;;;;;;;;;16.70;87.88;100052.00;1082761;47;19946;-79
2023/09/02 03:35:53;;;;;;;;;;;;;;;16.67;87.84;100055.91;1082446;47;19946;-79
2023/09/02 03:36:59;;;;;;;;;;;;;;;16.59;88.44;100053.28;1083295;39;20362;-79
2023/09/02 03:38:00;;;;;;;;;;;;;;;16.62;88.53;100054.78;1082612;47;20014;-79
2023/09/02 03:39:12;;;;;;;;;;;;;;;16.62;88.18;100055.63;1082602;47;19958;-79
2023/09/02 03:40:13;;;;;;;;;;;;;;;16.64;88.25;100050.88;1082708;47;19946;-78
2023/09/02 03:41:19;;;;;;;;;;;;;;;16.66;88.00;100053.41;1083423;54;19946;-79
2023/09/02 03:42:29;;;;;;;;;;;;;;;16.71;87.60;100059.06;1083911;47;19951;-80
2023/09/02 03:43:32;;;;;;;;;;;;;;;16.69;87.64;100059.25;1083930;47;20780;-79
2023/09/02 03:44:35;;;;;;;;;;;;;;;16.72;87.58;100057.22;1083065;54;19970;-80
2023/09/02 03:45:42;;;;;;;;;;;;;;;16.76;87.56;100050.41;1084643;47;20006;-80
2023/09/02 03:46:43;;;;;;;;;;;;;;;16.80;87.32;100057.13;1083404;47;19947;-80
2023/09/02 03:47:49;;;;;;;;;;;;;;;16.80;87.15;100057.97;1082262;47;19957;-79
2023/09/02 03:48:50;;;;;;;;;;;;;;;16.78;87.81;100051.91;1082740;54;19970;-79
2023/09/02 03:49:51;;;;;;;;;;;;;;;16.76;88.29;100056.66;1083174;54;20025;-80
2023/09/02 03:51:11;;;;;;;;;;;;;;;16.77;88.25;100052.91;1083829;54;19970;-80
2023/09/02 03:52:12;;;;;;;;;;;;;;;16.82;87.49;100052.38;1084560;54;19957;-81
2023/09/02 03:53:16;;;;;;;;;;;;;;;16.87;87.02;100049.09;1084482;54;19954;-80
2023/09/02 03:54:35;;;;;;;;;;;;;;;16.89;87.04;100055.16;1084085;47;19947;-81
2023/09/02 03:55:41;;;;;;;;;;;;;;;16.92;86.37;100063.72;1084080;47;19955;-80
2023/09/02 03:56:45;;;;;;;;;;;;;;;16.88;86.60;100057.03;1082269;47;19946;-79
2023/09/02 03:57:50;;;;;;;;;;;;;;;16.92;86.46;100061.03;1082887;54;19950;-80
2023/09/02 03:58:54;;;;;;;;;;;;;;;16.96;86.42;100056.97;1083087;47;19946;-79
2023/09/02 03:59:59;;;;;;;;;;;;;;;16.94;86.61;100067.13;1083268;46;19962;-80
2023/09/02 04:01:05;;;;;;;;;;;;;;;16.95;86.55;100063.41;1083629;54;19951;-79
2023/09/02 04:02:09;;;;;;;;;;;;;;;16.95;86.63;100066.09;1084932;39;20367;-79
2023/09/02 04:03:12;;;;;;;;;;;;;;;16.99;86.10;100061.16;1085208;54;19943;-80
2023/09/02 04:04:25;;;;;;;;;;;;;;;16.99;86.46;100063.84;1084295;47;19950;-79
2023/09/02 04:05:29;;;;;;;;;;;;;;;16.99;86.33;100059.31;1085643;39;20417;-79
2023/09/02 04:06:36;;;;;;;;;;;;;;;16.99;86.21;100062.00;1083570;47;19946;-79
2023/09/02 04:07:40;;;;;;;;;;;;;;;17.03;85.83;100077.81;1083826;54;19953;-80
2023/09/02 04:08:44;;;;;;;;;;;;;;;17.03;86.02;100067.88;1083304;54;19956;-79
2023/09/02 04:09:46;;;;;;;;;;;;;;;17.07;85.88;100065.63;1083642;47;19946;-79
2023/09/02 04:10:52;;;;;;;;;;;;;;;17.07;85.62;100076.44;1083264;47;19958;-80
2023/09/02 04:11:59;;;;;;;;;;;;;;;17.02;85.71;100071.59;1083588;47;19955;-79
2023/09/02 04:13:03;;;;;;;;;;;;;;;16.95;86.29;100079.59;1083028;46;19973;-79
2023/09/02 04:14:09;;;;;;;;;;;;;;;16.97;85.86;100074.00;1083739;47;19970;-80
2023/09/02 04:15:13;;;;;;;;;;;;;;;17.03;85.69;100075.13;1083433;47;19947;-80
2023/09/02 04:16:17;;;;;;;;;;;;;;;17.06;85.80;100069.34;1083195;47;19982;-79
2023/09/02 04:17:25;;;;;;;;;;;;;;;17.04;85.79;100076.81;1083481;47;19957;-79
2023/09/02 04:18:30;;;;;;;;;;;;;;;17.02;86.14;100065.34;1083737;54;20077;-79
2023/09/02 04:19:33;;;;;;;;;;;;;;;17.03;86.12;100069.72;1083662;47;20032;-79
2023/09/02 04:20:35;;;;;;;;;;;;;;;17.04;86.33;100071.41;1083401;47;20709;-78
2023/09/02 04:21:40;;;;;;;;;;;;;;;17.04;85.79;100072.25;1083638;47;19957;-79
2023/09/02 04:22:44;;;;;;;;;;;;;;;17.07;85.86;100071.84;1084579;39;20499;-80
2023/09/02 04:23:46;;;;;;;;;;;;;;;17.10;85.27;100070.63;1083897;47;20016;-79
2023/09/02 04:24:56;;;;;;;;;;;;;;;17.11;85.38;100075.88;1084601;54;19953;-79
2023/09/02 04:25:58;;;;;;;;;;;;;;;17.12;85.21;100074.84;1083673;47;19954;-78
2023/09/02 04:27:02;;;;;;;;;;;;;;;17.15;85.06;100077.16;1084705;47;19998;-80
2023/09/02 04:28:03;;;;;;;;;;;;;;;17.17;85.30;100078.84;1084365;50;19946;-79
2023/09/02 04:29:07;;;;;;;;;;;;;;;17.14;84.93;100082.75;1084971;54;19950;-80
2023/09/02 04:30:09;;;;;;;;;;;;;;;17.18;84.87;100084.06;1085263;47;20054;-80
2023/09/02 04:31:14;;;;;;;;;;;;;;;17.16;85.08;100080.72;1084250;54;19950;-79
2023/09/02 04:32:18;;;;;;;;;;;;;;;17.17;85.21;100079.69;1083856;48;19946;-79
2023/09/02 04:33:21;;;;;;;;;;;;;;;17.18;85.07;100075.97;1084062;47;19965;-79
2023/09/02 04:34:22;;;;;;;;;;;;;;;17.20;84.87;100073.91;1084474;47;19951;-79
2023/09/02 04:35:26;;;;;;;;;;;;;;;17.20;84.98;100082.00;1084171;47;19954;-79
2023/09/02 04:36:30;;;;;;;;;;;;;;;17.19;84.83;100080.34;1083620;54;19969;-78
2023/09/02 04:37:37;;;;;;;;;;;;;;;17.20;84.85;100081.19;1083791;54;19947;-78
2023/09/02 04:38:39;;;;;;;;;;;;;;;17.20;84.71;100087.41;1083813;54;19966;-79
2023/09/02 04:39:45;;;;;;;;;;;;;;;17.20;84.76;100082.00;1082969;47;19947;-78
2023/09/02 04:40:46;;;;;;;;;;;;;;;17.19;84.79;100080.34;1083718;54;19939;-79
2023/09/02 04:42:00;;;;;;;;;;;;;;;17.19;84.34;100084.91;1083520;47;20543;-78
2023/09/02 04:43:03;;;;;;;;;;;;;;;17.18;84.80;100085.91;1083009;47;19996;-78
2023/09/02 04:44:09;;;;;;;;;;;;;;;17.18;84.88;100091.31;1083891;47;19957;-78
2023/09/02 04:45:17;;;;;;;;;;;;;;;17.17;84.91;100082.41;1083569;47;19947;-78
2023/09/02 04:46:24;;;;;;;;;;;;;;;17.13;85.31;100086.47;1083129;54;19950;-79
2023/09/02 04:47:41;;;;;;;;;;;;;;;17.05;85.66;100094.69;1085419;31;20474;-78
2023/09/02 04:48:53;;;;;;;;;;;;;;;17.04;86.23;100087.59;1082388;47;19946;-78
2023/09/02 04:50:05;;;;;;;;;;;;;;;16.99;86.63;100085.47;1082443;47;19958;-78
2023/09/02 04:51:11;;;;;;;;;;;;;;;16.95;86.54;100081.47;1082482;47;19957;-80
2023/09/02 04:52:20;;;;;;;;;;;;;;;16.87;87.42;100087.75;1083316;46;19958;-78
2023/09/02 04:53:36;;;;;;;;;;;;;;;16.89;87.42;100091.13;1083442;47;19947;-79
2023/09/02 04:54:37;;;;;;;;;;;;;;;16.94;86.98;100096.00;1083350;47;19966;-79
2023/09/02 04:55:41;;;;;;;;;;;;;;;16.95;86.72;100092.28;1083770;54;20906;-79
2023/09/02 04:56:42;;;;;;;;;;;;;;;16.94;86.81;100088.72;1084745;39;20464;-78
2023/09/02 04:57:50;;;;;;;;;;;;;;;16.97;86.81;100098.31;1083433;47;19950;-78
2023/09/02 04:58:52;;;;;;;;;;;;;;;17.01;86.36;100083.41;1082931;47;19950;-78
2023/09/02 04:59:59;;;;;;;;;;;;;;;17.01;86.23;100094.22;1083054;47;20038;-78
2023/09/02 05:01:09;;;;;;;;;;;;;;;17.00;86.02;100090.66;1083410;54;20023;-78
2023/09/02 05:02:17;;;;;;;;;;;;;;;16.91;86.98;100089.03;1082717;54;19946;-78
2023/09/02 05:03:20;;;;;;;;;;;;;;;16.84;87.86;100088.13;1082611;47;19957;-78
2023/09/02 05:04:25;;;;;;;;;;;;;;;16.88;87.06;100089.44;1082679;47;19950;-78
2023/09/02 05:05:36;;;;;;;;;;;;;;;16.93;86.92;100091.59;1082584;47;19953;-77
2023/09/02 05:06:41;;;;;;;;;;;;;;;16.92;87.02;100096.13;1084050;39;20379;-78
2023/09/02 05:07:46;;;;;;;;;;;;;;;16.96;86.87;100093.91;1082982;47;19975;-78
2023/09/02 05:08:54;;;;;;;;;;;;;;;17.00;86.53;100104.16;1083217;47;19955;-78
2023/09/02 05:10:08;;;;;;;;;;;;;;;17.04;86.15;100101.97;1084282;39;20815;-78
2023/09/02 05:11:17;;;;;;;;;;;;;;;17.10;85.83;100097.66;1083203;47;19947;-78
2023/09/02 05:12:20;;;;;;;;;;;;;;;17.12;85.45;100096.47;1083678;47;19946;-78
2023/09/02 05:13:24;;;;;;;;;;;;;;;17.16;85.69;100094.22;1083070;47;19947;-78
2023/09/02 05:14:44;;;;;;;;;;;;;;;17.18;85.35;100092.19;1083573;47;20002;-79
2023/09/02 05:15:52;;;;;;;;;;;;;;;17.19;85.15;100099.25;1082444;47;19958;-77
2023/09/02 05:16:55;;;;;;;;;;;;;;;17.21;85.15;100105.28;1082515;47;19962;-77
2023/09/02 05:18:02;;;;;;;;;;;;;;;17.24;85.35;100101.41;1083104;47;19947;-77
2023/09/02 05:19:22;;;;;;;;;;;;;;;17.25;85.32;100105.75;1082823;47;19947;-78
2023/09/02 05:20:45;;;;;;;;;;;;;;;17.25;85.32;100097.66;1083067;47;20326;-78
2023/09/02 05:21:57;;;;;;;;;;;;;;;17.28;85.08;100111.66;1082986;47;20119;-78
2023/09/02 05:23:04;;;;;;;;;;;;;;;17.25;84.89;100097.66;1082472;47;19970;-78
2023/09/02 05:24:08;;;;;;;;;;;;;;;17.30;84.80;100100.63;1082636;47;20474;-78
2023/09/02 05:25:17;;;;;;;;;;;;;;;17.30;84.60;100100.63;1082718;47;19994;-78
2023/09/02 05:26:20;;;;;;;;;;;;;;;17.27;85.30;100104.56;1082865;47;19946;-77
2023/09/02 05:27:28;;;;;;;;;;;;;;;17.22;86.01;100098.03;1083251;51;19947;-78
2023/09/02 05:28:32;;;;;;;;;;;;;;;17.26;85.69;100097.47;1083375;47;19969;-78
2023/09/02 05:29:35;;;;;;;;;;;;;;;17.23;86.27;100100.53;1083234;47;19947;-78
2023/09/02 05:30:39;;;;;;;;;;;;;;;17.21;85.76;100099.88;1083408;54;19947;-78
2023/09/02 05:31:45;;;;;;;;;;;;;;;17.24;85.83;100096.00;1083768;47;19954;-78
2023/09/02 05:32:47;;;;;;;;;;;;;;;17.26;85.47;100094.78;1083266;47;19990;-78
2023/09/02 05:33:54;;;;;;;;;;;;;;;17.31;85.06;100102.31;1083747;47;19946;-78
2023/09/02 05:34:59;;;;;;;;;;;;;;;17.31;84.95;100095.03;1083940;47;20050;-78
2023/09/02 05:36:07;;;;;;;;;;;;;;;17.36;84.94;100105.28;1083646;54;19946;-78
2023/09/02 05:38:38;;;;;;;;;;;;;;;17.43;84.50;100099.97;1084439;47;20471;-78
2023/09/02 05:39:42;;;;;;;;;;;;;;;17.48;84.55;100100.22;1084320;54;19946;-78
2023/09/02 05:40:47;;;;;;;;;;;;;;;17.49;84.45;100098.38;1084913;54;19954;-79
2023/09/02 05:41:54;;;;;;;;;;;;;;;17.46;84.47;100102.31;1085243;47;19958;-78
2023/09/02 05:43:12;;;;;;;;;;;;;;;17.46;84.12;100096.91;1085085;47;19946;-78
2023/09/02 05:44:15;;;;;;;;;;;;;;;17.51;83.96;100094.44;1085010;54;19951;-78